Time;durP1;ratioP1;P1;durP2;ratioP2;P2;SDS_P1;SDS_P2;PMS_P1;PMS_P2;Temp;Humidity;BMP_temperature;BMP_pressure;BME280_temperature;BME280_humidity;BME280_pressure;Samples;Min_cycle;Max_cycle;Signal;HPM_P1;HPM_P2
2023/08/10 00:02:19;;;;;;;7.30;6.60;;;;;;;12.84;88.95;100789.45;103727;280;40382;-76
2023/08/10 00:04:53;;;;;;;7.40;6.70;;;;;;;12.80;88.91;100791.54;103686;279;38806;-74
2023/08/10 00:07:28;;;;;;;7.20;6.40;;;;;;;12.77;88.86;100790.11;103824;278;38308;-73
2023/08/10 00:10:05;;;;;;;7.80;7.10;;;;;;;12.72;88.81;100790.11;103706;279;38481;-75
2023/08/10 00:12:41;;;;;;;8.10;7.40;;;;;;;12.70;89.10;100788.44;103701;279;38297;-74
2023/08/10 00:15:16;;;;;;;8.90;7.40;;;;;;;12.70;89.26;100790.23;103806;267;39302;-74
2023/08/10 00:17:50;;;;;;;7.70;6.90;;;;;;;12.65;89.16;100789.89;103843;278;38391;-75
2023/08/10 00:20:25;;;;;;;7.80;7.00;;;;;;;12.63;89.28;100795.05;103783;279;38516;-75
2023/08/10 00:23:02;;;;;;;7.20;6.50;;;;;;;12.59;89.03;100791.34;103764;279;39604;-74
2023/08/10 00:25:36;;;;;;;6.90;6.20;;;;;;;12.56;88.97;100795.69;103635;279;38222;-75
2023/08/10 00:28:12;;;;;;;7.60;6.90;;;;;;;12.53;89.02;100795.77;103842;279;39357;-74
2023/08/10 00:30:52;;;;;;;7.00;6.30;;;;;;;12.51;89.16;100792.88;103199;279;901977;-74
2023/08/10 00:33:27;;;;;;;8.90;6.40;;;;;;;12.50;89.11;100793.63;103735;279;39615;-74
2023/08/10 00:36:09;;;;;;;7.30;6.60;;;;;;;12.49;89.13;100796.80;103204;279;899749;-74
2023/08/10 00:38:44;;;;;;;7.80;6.80;;;;;;;12.48;89.32;100793.35;103852;278;39331;-74
2023/08/10 00:41:18;;;;;;;7.70;6.10;;;;;;;12.46;89.02;100794.82;103841;279;38316;-76
2023/08/10 00:43:57;;;;;;;7.50;6.80;;;;;;;12.41;88.74;100796.77;103863;278;38528;-74
2023/08/10 00:46:31;;;;;;;8.30;7.10;;;;;;;12.36;88.89;100796.60;103831;279;38254;-75
2023/08/10 00:49:06;;;;;;;8.40;6.80;;;;;;;12.34;89.00;100797.23;103700;279;38515;-73
2023/08/10 00:51:43;;;;;;;8.30;7.10;;;;;;;12.33;89.08;100799.54;103861;279;38354;-73
2023/08/10 00:54:17;;;;;;;7.90;7.20;;;;;;;12.30;89.06;100799.98;103813;279;38251;-74
2023/08/10 00:56:53;;;;;;;7.40;6.70;;;;;;;12.29;89.06;100805.80;103900;267;38493;-76
2023/08/10 00:59:27;;;;;;;7.30;6.50;;;;;;;12.27;89.03;100803.11;103832;279;38679;-74
2023/08/10 01:02:01;;;;;;;7.50;6.80;;;;;;;12.27;89.22;100804.14;103919;277;38237;-74
2023/08/10 01:04:36;;;;;;;7.90;7.20;;;;;;;12.30;89.35;100796.31;103720;279;38397;-74
2023/08/10 01:07:14;;;;;;;7.80;7.00;;;;;;;12.32;89.30;100798.86;103867;279;40010;-76
2023/08/10 01:09:50;;;;;;;8.10;7.00;;;;;;;12.31;89.22;100802.05;103796;279;38795;-75
2023/08/10 01:12:34;;;;;;;8.20;7.20;;;;;;;12.28;89.15;100803.75;103806;279;38773;-74
2023/08/10 01:15:12;;;;;;;7.90;7.10;;;;;;;12.27;89.17;100807.63;103840;278;38276;-75
2023/08/10 01:17:52;;;;;;;7.60;6.90;;;;;;;12.26;89.00;100812.56;103739;279;38727;-74
2023/08/10 01:20:28;;;;;;;8.90;7.30;;;;;;;12.23;89.09;100813.55;103682;279;38447;-75
2023/08/10 01:23:10;;;;;;;8.80;6.80;;;;;;;12.20;88.94;100813.50;103887;279;38590;-74
2023/08/10 01:25:50;;;;;;;7.70;6.90;;;;;;;12.15;88.69;100814.21;103825;279;39391;-74
2023/08/10 01:28:26;;;;;;;9.40;7.40;;;;;;;12.14;89.10;100816.86;103832;279;38271;-75
2023/08/10 01:31:02;;;;;;;9.20;8.10;;;;;;;12.13;89.05;100819.02;103737;280;38523;-75
2023/08/10 01:33:38;;;;;;;8.20;7.10;;;;;;;12.11;89.13;100817.00;103708;279;173653;-73
2023/08/10 01:36:12;;;;;;;8.00;7.20;;;;;;;12.10;89.17;100825.77;103888;279;38271;-75
2023/08/10 01:38:48;;;;;;;7.70;6.80;;;;;;;12.07;89.13;100827.59;103806;271;39124;-73
2023/08/10 01:41:23;;;;;;;8.10;7.10;;;;;;;12.06;88.95;100828.54;103838;278;39847;-73
2023/08/10 01:43:58;;;;;;;9.80;7.60;;;;;;;12.03;89.12;100832.31;103826;279;38514;-73
2023/08/10 01:46:36;;;;;;;11.60;8.10;;;;;;;12.03;89.24;100833.54;103832;279;39635;-73
2023/08/10 01:49:15;;;;;;;7.90;7.10;;;;;;;12.01;89.15;100835.89;103795;279;38927;-74
2023/08/10 01:51:50;;;;;;;8.40;7.00;;;;;;;11.98;89.28;100833.36;103873;279;39666;-73
2023/08/10 01:54:28;;;;;;;9.00;7.60;;;;;;;11.99;89.29;100833.71;103837;279;38490;-73
2023/08/10 01:57:03;;;;;;;10.30;8.30;;;;;;;12.00;89.38;100835.42;103810;278;38495;-73
2023/08/10 01:59:38;;;;;;;8.50;7.70;;;;;;;11.99;89.53;100833.17;103822;279;38491;-75
2023/08/10 02:02:14;;;;;;;8.90;7.80;;;;;;;12.00;89.96;100835.55;103800;279;38656;-74
2023/08/10 02:04:48;;;;;;;10.50;9.40;;;;;;;12.02;90.23;100836.55;103804;279;38259;-73
2023/08/10 02:07:26;;;;;;;9.00;8.20;;;;;;;12.05;90.48;100839.41;103874;278;39389;-73
2023/08/10 02:10:03;;;;;;;9.90;8.90;;;;;;;12.08;90.83;100835.63;103816;279;39479;-73
2023/08/10 02:12:41;;;;;;;9.80;8.90;;;;;;;12.10;90.44;100837.30;103889;279;37499;-73
2023/08/10 02:15:17;;;;;;;9.40;8.30;;;;;;;12.11;90.58;100838.33;103832;267;38483;-73
2023/08/10 02:17:52;;;;;;;9.10;8.20;;;;;;;12.12;90.77;100840.55;103850;278;39479;-73
2023/08/10 02:20:27;;;;;;;9.10;8.10;;;;;;;12.11;90.50;100837.95;103820;279;39421;-73
2023/08/10 02:23:01;;;;;;;8.90;8.10;;;;;;;12.12;90.33;100841.09;103857;279;38574;-73
2023/08/10 02:25:35;;;;;;;9.50;8.70;;;;;;;12.10;90.09;100843.59;103783;279;39913;-73
2023/08/10 02:28:11;;;;;;;9.50;8.60;;;;;;;12.08;90.19;100843.34;103832;279;39147;-73
2023/08/10 02:30:51;;;;;;;9.30;8.30;;;;;;;12.06;90.14;100840.95;103819;279;39685;-73
2023/08/10 02:33:27;;;;;;;10.70;9.10;;;;;;;12.04;90.07;100842.06;103712;280;39937;-73
2023/08/10 02:36:01;;;;;;;11.10;9.70;;;;;;;12.02;90.10;100837.44;103693;279;40306;-75
2023/08/10 02:38:38;;;;;;;10.70;9.60;;;;;;;12.01;90.22;100836.59;103827;279;40026;-74
2023/08/10 02:41:13;;;;;;;10.90;9.80;;;;;;;12.00;90.24;100838.35;103816;266;39661;-74
2023/08/10 02:43:47;;;;;;;10.90;8.70;;;;;;;11.99;90.12;100840.00;103812;279;38718;-73
2023/08/10 02:46:21;;;;;;;9.10;8.10;;;;;;;11.93;89.89;100841.77;103837;279;38806;-74
2023/08/10 02:48:57;;;;;;;9.60;8.60;;;;;;;11.90;89.83;100845.73;103832;279;39367;-74
2023/08/10 02:51:31;;;;;;;14.10;9.20;;;;;;;11.89;90.03;100847.69;103816;279;38233;-73
2023/08/10 02:54:05;;;;;;;10.90;8.30;;;;;;;11.88;90.13;100846.84;103811;279;39141;-73
2023/08/10 02:56:40;;;;;;;9.30;8.40;;;;;;;11.85;89.80;100850.44;103748;279;39897;-75
2023/08/10 02:59:14;;;;;;;8.70;7.60;;;;;;;11.81;89.73;100854.07;103826;278;38706;-75
2023/08/10 03:01:48;;;;;;;9.10;8.30;;;;;;;11.79;89.55;100859.38;103834;279;38311;-74
2023/08/10 03:04:22;;;;;;;9.40;8.50;;;;;;;11.75;89.58;100860.38;103820;267;39010;-73
2023/08/10 03:06:58;;;;;;;9.10;8.20;;;;;;;11.72;89.44;100864.86;103857;279;39410;-73
2023/08/10 03:09:32;;;;;;;8.30;7.50;;;;;;;11.67;89.34;100865.75;103817;279;38717;-73
2023/08/10 03:12:07;;;;;;;8.80;7.80;;;;;;;11.60;89.15;100866.48;103728;279;188508;-73
2023/08/10 03:14:42;;;;;;;8.70;7.80;;;;;;;11.56;89.11;100870.14;103850;279;38220;-74
2023/08/10 03:17:18;;;;;;;8.60;7.80;;;;;;;11.49;89.14;100871.94;103845;278;38313;-74
2023/08/10 03:19:52;;;;;;;10.00;8.10;;;;;;;11.46;89.42;100876.41;103710;279;38891;-75
2023/08/10 03:22:27;;;;;;;8.30;7.40;;;;;;;11.45;89.61;100881.36;103863;279;38425;-73
2023/08/10 03:25:05;;;;;;;8.50;7.60;;;;;;;11.44;89.91;100884.50;103816;279;38232;-73
2023/08/10 03:27:41;;;;;;;8.40;7.60;;;;;;;11.45;90.10;100884.66;103832;279;38583;-75
2023/08/10 03:30:19;;;;;;;10.70;8.00;;;;;;;11.49;90.37;100885.60;103819;279;39990;-75
2023/08/10 03:32:55;;;;;;;9.00;8.20;;;;;;;11.52;90.57;100884.60;103838;279;38356;-74
2023/08/10 03:35:29;;;;;;;8.80;7.90;;;;;;;11.56;91.05;100884.80;103822;278;38421;-75
2023/08/10 03:38:04;;;;;;;8.60;7.80;;;;;;;11.61;91.49;100881.64;103834;279;38258;-73
2023/08/10 03:40:39;;;;;;;8.20;7.40;;;;;;;11.67;91.63;100887.58;103853;279;38256;-73
2023/08/10 03:43:13;;;;;;;8.10;7.30;;;;;;;11.72;91.75;100888.45;103342;279;715122;-73
2023/08/10 03:45:50;;;;;;;8.00;7.20;;;;;;;11.77;91.46;100891.25;103863;278;38262;-75
2023/08/10 03:48:27;;;;;;;8.80;7.70;;;;;;;11.79;91.14;100892.77;103845;279;38519;-73
2023/08/10 03:51:03;;;;;;;8.80;7.90;;;;;;;11.80;91.09;100892.02;103758;280;38257;-74
2023/08/10 03:53:38;;;;;;;7.70;6.50;;;;;;;11.81;91.20;100893.39;103815;279;38514;-74
2023/08/10 03:56:13;;;;;;;8.40;7.10;;;;;;;11.83;91.15;100898.05;103855;279;39660;-76
2023/08/10 03:58:47;;;;;;;8.70;6.70;;;;;;;11.85;91.04;100897.11;103810;279;39392;-74
2023/08/10 04:01:22;;;;;;;8.10;7.40;;;;;;;11.87;91.16;100897.23;103846;279;38460;-74
2023/08/10 04:03:56;;;;;;;7.90;7.10;;;;;;;11.91;91.43;100894.65;103816;279;38526;-74
2023/08/10 04:06:31;;;;;;;8.30;7.50;;;;;;;11.97;91.97;100895.13;103842;278;39321;-74
2023/08/10 04:09:07;;;;;;;10.10;7.10;;;;;;;12.05;92.29;100892.58;103833;278;38246;-73
2023/08/10 04:11:43;;;;;;;8.10;7.40;;;;;;;12.18;92.85;100894.21;103870;279;38263;-74
2023/08/10 04:14:18;;;;;;;9.00;8.20;;;;;;;12.32;93.00;100895.60;103813;267;38242;-74
2023/08/10 04:16:52;;;;;;;9.50;7.50;;;;;;;12.42;93.31;100900.85;103824;279;38267;-74
2023/08/10 04:19:27;;;;;;;8.90;8.00;;;;;;;12.52;93.21;100895.57;103794;278;38413;-74
2023/08/10 04:22:03;;;;;;;8.90;7.30;;;;;;;12.62;93.25;100899.22;103861;279;40122;-73
2023/08/10 04:24:38;;;;;;;8.20;7.20;;;;;;;12.70;93.23;100904.88;103821;278;39409;-76
2023/08/10 04:27:13;;;;;;;8.30;7.00;;;;;;;12.77;93.23;100905.99;103871;279;39392;-74
2023/08/10 04:29:48;;;;;;;7.80;7.00;;;;;;;12.88;93.53;100905.58;103806;278;38304;-75
2023/08/10 04:32:22;;;;;;;13.30;7.30;;;;;;;13.01;93.65;100905.60;103842;279;39797;-73
2023/08/10 04:34:57;;;;;;;9.00;8.20;;;;;;;13.11;93.59;100907.30;103821;278;38650;-73
2023/08/10 04:37:32;;;;;;;9.50;8.70;;;;;;;13.21;93.67;100910.06;103859;278;38868;-73
2023/08/10 04:40:10;;;;;;;9.30;8.30;;;;;;;13.32;93.69;100911.39;103803;279;38521;-75
2023/08/10 04:42:45;;;;;;;9.00;8.20;;;;;;;13.44;93.52;100914.38;103863;279;39675;-74
2023/08/10 04:45:24;;;;;;;7.90;7.10;;;;;;;13.53;93.29;100914.36;103825;278;38415;-74
2023/08/10 04:47:56;;;;;;;;;;;;;;;13.62;92.93;100915.75;103905;279;38006;-75
2023/08/10 04:50:31;;;;;;;10.00;8.60;;;;;;;13.62;92.42;100918.88;103836;267;38232;-74
2023/08/10 04:53:06;;;;;;;8.90;8.10;;;;;;;13.66;92.42;100924.00;103854;279;39026;-75
2023/08/10 04:55:40;;;;;;;9.00;8.10;;;;;;;13.71;92.25;100924.34;103803;279;38854;-73
2023/08/10 04:58:17;;;;;;;9.00;8.20;;;;;;;13.77;92.22;100922.46;103812;279;38400;-75
2023/08/10 05:00:57;;;;;;;9.50;8.50;;;;;;;13.88;92.48;100927.09;103799;279;38261;-75
2023/08/10 05:03:30;;;;;;;9.70;8.80;;;;;;;13.99;92.25;100935.39;103813;279;38422;-73
2023/08/10 05:06:07;;;;;;;10.40;9.10;;;;;;;14.08;91.90;100940.98;103849;279;38538;-74
2023/08/10 05:08:42;;;;;;;9.70;8.80;;;;;;;14.12;91.47;100943.92;103836;266;38838;-74
2023/08/10 05:11:18;;;;;;;10.40;8.80;;;;;;;14.15;91.20;100942.06;103852;279;38153;-75
2023/08/10 05:13:53;;;;;;;8.80;8.00;;;;;;;14.19;91.05;100943.30;103835;279;38841;-74
2023/08/10 05:16:28;;;;;;;9.00;8.10;;;;;;;14.23;90.74;100951.53;103844;279;38259;-74
2023/08/10 05:19:02;;;;;;;11.60;8.80;;;;;;;14.28;90.48;100952.73;103814;279;38961;-76
2023/08/10 05:21:37;;;;;;;9.80;8.80;;;;;;;14.30;90.43;100952.29;103853;279;38714;-74
2023/08/10 05:24:11;;;;;;;9.50;8.50;;;;;;;14.35;90.49;100955.23;103807;278;39660;-74
2023/08/10 05:26:49;;;;;;;11.30;9.10;;;;;;;14.41;90.40;100955.83;103839;279;39956;-75
2023/08/10 05:29:22;;;;;;;9.40;8.50;;;;;;;14.51;90.66;100959.12;103804;278;38383;-76
2023/08/10 05:31:57;;;;;;;9.80;8.90;;;;;;;14.66;90.95;100961.25;103864;279;38494;-75
2023/08/10 05:34:31;;;;;;;10.00;8.90;;;;;;;15.09;91.14;100958.17;103815;279;38479;-74
2023/08/10 05:37:07;;;;;;;10.10;9.20;;;;;;;15.70;90.57;100962.65;103826;279;38486;-76
2023/08/10 05:39:43;;;;;;;11.30;10.10;;;;;;;15.93;88.92;100968.85;103812;279;38243;-74
2023/08/10 05:42:18;;;;;;;9.70;8.70;;;;;;;16.23;87.73;100970.50;103741;279;38975;-74
2023/08/10 05:44:52;;;;;;;9.10;8.20;;;;;;;16.72;87.25;100969.84;103714;279;39444;-76
2023/08/10 05:47:27;;;;;;;9.30;8.40;;;;;;;17.46;87.55;100968.20;103851;279;39665;-74
2023/08/10 05:50:01;;;;;;;8.90;8.10;;;;;;;18.23;85.50;100975.90;103729;279;172079;-74
2023/08/10 05:52:38;;;;;;;9.40;8.60;;;;;;;18.76;83.24;100977.79;103855;279;38747;-76
2023/08/10 05:55:13;;;;;;;9.20;8.40;;;;;;;19.43;81.72;100971.54;103817;279;38991;-75
2023/08/10 05:57:49;;;;;;;10.70;8.40;;;;;;;20.18;78.92;100973.27;103841;279;38270;-74
2023/08/10 06:00:23;;;;;;;9.20;8.30;;;;;;;20.87;76.26;100970.44;103782;278;40001;-74
2023/08/10 06:02:57;;;;;;;8.70;7.90;;;;;;;21.64;73.05;100971.34;103835;278;38397;-76
2023/08/10 06:05:32;;;;;;;8.80;7.90;;;;;;;22.52;69.87;100977.95;103805;279;38294;-76
2023/08/10 06:08:08;;;;;;;8.70;7.30;;;;;;;23.41;66.58;100972.45;103858;279;38242;-75
2023/08/10 06:10:42;;;;;;;6.90;6.30;;;;;;;24.07;63.44;100973.89;103830;267;39718;-75
2023/08/10 06:13:20;;;;;;;7.30;6.70;;;;;;;24.61;60.33;100976.86;103822;279;38496;-74
2023/08/10 06:15:54;;;;;;;8.30;6.70;;;;;;;25.14;58.40;100980.39;103828;279;38541;-74
2023/08/10 06:18:30;;;;;;;7.60;6.30;;;;;;;25.67;54.83;100979.17;103828;279;38498;-74
2023/08/10 06:21:04;;;;;;;7.80;7.10;;;;;;;26.21;53.05;100980.58;103796;279;38750;-75
2023/08/10 06:23:39;;;;;;;7.70;7.00;;;;;;;26.39;50.49;100984.84;103832;279;38402;-74
2023/08/10 06:26:17;;;;;;;6.50;5.90;;;;;;;26.34;50.59;100982.81;103755;279;38259;-74
2023/08/10 06:28:51;;;;;;;;;;;;;;;26.29;49.46;100983.08;103843;279;38248;-74
2023/08/10 06:31:28;;;;;;;6.40;5.80;;;;;;;26.46;49.41;100988.64;103826;279;38687;-74
2023/08/10 06:34:03;;;;;;;7.20;6.60;;;;;;;26.55;48.20;100989.90;103824;279;38504;-74
2023/08/10 06:36:38;;;;;;;7.60;6.70;;;;;;;26.62;47.85;100989.96;103845;278;38989;-74
2023/08/10 06:39:11;;;;;;;7.70;6.80;;;;;;;26.31;47.10;100991.77;103727;279;174767;-74
2023/08/10 06:41:45;;;;;;;6.90;6.20;;;;;;;26.22;48.09;100991.42;103858;279;39463;-75
2023/08/10 06:44:20;;;;;;;7.70;6.50;;;;;;;26.28;47.53;100992.48;103805;278;38255;-75
2023/08/10 06:46:54;;;;;;;6.70;6.00;;;;;;;26.57;47.58;100992.39;103755;278;174360;-75
2023/08/10 06:49:29;;;;;;;7.20;5.70;;;;;;;27.10;47.03;100988.89;103809;279;39453;-75
2023/08/10 06:52:03;;;;;;;8.10;6.30;;;;;;;27.66;46.30;100982.61;103870;279;38279;-75
2023/08/10 06:54:37;;;;;;;5.60;4.90;;;;;;;27.96;44.83;100980.86;103820;279;38250;-75
2023/08/10 06:57:11;;;;;;;7.70;5.50;;;;;;;27.72;44.44;100982.55;103802;279;39048;-75
2023/08/10 06:59:45;;;;;;;5.70;4.70;;;;;;;27.16;44.86;100985.05;103838;279;38840;-75
2023/08/10 07:02:20;;;;;;;5.30;4.40;;;;;;;26.49;45.60;100989.08;103842;279;39898;-75
2023/08/10 07:04:55;;;;;;;6.90;5.40;;;;;;;25.89;46.34;100987.85;103827;279;38722;-75
2023/08/10 07:07:30;;;;;;;5.50;4.10;;;;;;;25.45;47.31;100984.95;103812;279;38727;-75
2023/08/10 07:10:05;;;;;;;4.80;4.30;;;;;;;24.93;47.80;100986.94;103692;280;39706;-76
2023/08/10 07:12:45;;;;;;;5.70;4.30;;;;;;;24.48;48.92;100989.05;103850;278;39660;-75
2023/08/10 07:15:22;;;;;;;5.50;4.60;;;;;;;24.27;50.55;100986.58;103833;278;38379;-75
2023/08/10 07:17:57;;;;;;;4.50;4.00;;;;;;;24.16;50.43;100986.61;103853;278;39599;-75
2023/08/10 07:20:33;;;;;;;5.00;3.60;;;;;;;24.03;49.99;100988.31;103833;279;38392;-75
2023/08/10 07:23:08;;;;;;;6.10;4.20;;;;;;;24.11;50.89;100990.27;103820;278;39306;-75
2023/08/10 07:25:43;;;;;;;4.70;3.50;;;;;;;24.41;52.19;100989.12;103814;279;38233;-75
2023/08/10 07:28:21;;;;;;;4.00;2.90;;;;;;;25.09;51.80;100984.30;103775;279;38378;-75
2023/08/10 07:30:55;;;;;;;5.80;3.80;;;;;;;25.84;50.25;100984.04;103226;279;902394;-75
2023/08/10 07:33:29;;;;;;;5.20;3.30;;;;;;;26.57;48.45;100988.26;103832;278;38901;-75
2023/08/10 07:36:05;;;;;;;4.20;3.50;;;;;;;27.24;46.34;100985.79;103862;279;39714;-75
2023/08/10 07:38:39;;;;;;;5.10;3.60;;;;;;;27.86;44.84;100986.55;103757;279;40095;-75
2023/08/10 07:41:16;;;;;;;6.70;3.60;;;;;;;28.36;43.95;100987.59;103825;279;38838;-75
2023/08/10 07:43:54;;;;;;;4.00;3.30;;;;;;;28.79;43.74;100983.74;103835;278;38278;-76
2023/08/10 07:46:28;;;;;;;4.90;3.00;;;;;;;29.32;41.83;100987.80;103830;279;38430;-76
2023/08/10 07:49:05;;;;;;;3.20;2.70;;;;;;;29.67;40.37;100988.89;103809;278;38590;-76
2023/08/10 07:51:38;;;;;;;3.80;2.20;;;;;;;30.23;40.03;100991.00;103633;279;171076;-76
2023/08/10 07:54:15;;;;;;;4.00;2.70;;;;;;;30.84;38.59;100993.83;103831;279;39592;-76
2023/08/10 07:56:49;;;;;;;4.70;2.40;;;;;;;31.13;37.04;100990.48;103717;279;38243;-76
2023/08/10 07:59:22;;;;;;;5.10;2.30;;;;;;;31.57;35.77;100989.93;103830;278;39037;-77
2023/08/10 08:01:57;;;;;;;3.90;2.40;;;;;;;32.10;35.72;100987.84;103828;279;38677;-76
2023/08/10 08:04:31;;;;;;;5.30;2.10;;;;;;;32.52;35.09;100987.21;103822;279;38491;-75
2023/08/10 08:07:06;;;;;;;4.50;2.00;;;;;;;32.82;33.52;100995.13;103843;279;38353;-75
2023/08/10 08:09:40;;;;;;;3.30;1.80;;;;;;;33.05;32.60;100995.06;103800;279;38987;-75
2023/08/10 08:12:14;;;;;;;4.10;2.00;;;;;;;33.13;30.55;100992.45;103836;279;38492;-76
2023/08/10 08:14:48;;;;;;;3.20;2.50;;;;;;;33.13;30.03;100990.08;103835;278;38239;-76
2023/08/10 08:17:24;;;;;;;4.90;2.40;;;;;;;33.22;30.12;100989.26;103792;279;38475;-76
2023/08/10 08:20:02;;;;;;;4.40;2.50;;;;;;;33.39;30.80;100984.86;103845;278;38434;-76
2023/08/10 08:22:35;;;;;;;;;;;;;;;33.78;30.18;100987.17;103145;279;883957;-76
2023/08/10 08:25:12;;;;;;;3.00;1.90;;;;;;;33.54;29.82;100986.63;103799;278;40034;-76
2023/08/10 08:27:47;;;;;;;5.60;2.00;;;;;;;33.44;29.52;100983.30;103836;279;38648;-76
2023/08/10 08:30:26;;;;;;;3.60;1.80;;;;;;;33.33;28.30;100983.77;103880;278;38661;-76
2023/08/10 08:33:00;;;;;;;2.60;1.90;;;;;;;33.38;29.29;100983.10;103723;279;38991;-76
2023/08/10 08:35:37;;;;;;;3.00;1.70;;;;;;;33.72;29.48;100987.70;103813;279;38402;-76
2023/08/10 08:38:13;;;;;;;4.00;1.60;;;;;;;33.66;28.78;100988.06;103743;280;38245;-76
2023/08/10 08:40:50;;;;;;;4.10;1.90;;;;;;;32.91;28.99;100995.63;103692;280;38495;-76
2023/08/10 08:43:23;;;;;;;;;;;;;;;32.50;29.36;100990.51;103679;280;38456;-76
2023/08/10 08:46:02;;;;;;;2.90;1.60;;;;;;;31.76;29.91;100992.70;103698;279;38282;-76
2023/08/10 08:48:47;;;;;;;3.20;1.50;;;;;;;31.45;29.93;100996.00;103662;280;38686;-76
2023/08/10 08:51:21;;;;;;;3.20;2.00;;;;;;;31.76;29.63;100994.61;103729;280;38280;-76
2023/08/10 08:54:01;;;;;;;3.90;1.90;;;;;;;32.40;29.62;100990.14;103686;280;38933;-76
2023/08/10 08:56:36;;;;;;;2.50;1.20;;;;;;;32.79;29.11;100992.75;103757;280;38523;-76
2023/08/10 08:59:11;;;;;;;2.70;1.60;;;;;;;33.27;28.63;100995.20;103707;280;39412;-76
2023/08/10 09:01:48;;;;;;;2.10;1.50;;;;;;;33.41;27.98;100996.15;103720;280;39415;-76
2023/08/10 09:04:28;;;;;;;4.30;1.50;;;;;;;33.46;28.15;100992.09;103684;280;39395;-76
2023/08/10 09:07:04;;;;;;;2.60;1.30;;;;;;;33.73;27.17;100991.93;103598;279;173957;-76
2023/08/10 09:09:42;;;;;;;3.90;1.50;;;;;;;34.20;26.86;100997.90;103692;280;38314;-76
2023/08/10 09:12:38;;;;;;;2.70;1.50;;;;;;;34.50;27.16;100996.58;103727;280;38605;-76
2023/08/10 09:15:14;;;;;;;2.70;1.40;;;;;;;34.88;26.95;100994.65;103693;280;39078;-76
2023/08/10 09:17:51;;;;;;;2.70;1.50;;;;;;;35.18;26.19;101000.94;103751;280;38237;-76
2023/08/10 09:20:27;;;;;;;2.20;1.30;;;;;;;35.27;25.39;100997.74;103662;268;38835;-76
2023/08/10 09:23:01;;;;;;;2.10;1.30;;;;;;;35.37;25.05;100997.48;103732;280;39935;-76
2023/08/10 09:25:43;;;;;;;2.30;1.30;;;;;;;35.38;24.73;100996.34;102964;280;881669;-76
2023/08/10 09:28:20;;;;;;;2.40;1.10;;;;;;;35.26;24.42;100995.16;103681;280;38770;-76
2023/08/10 09:30:55;;;;;;;3.10;1.30;;;;;;;35.01;23.79;100995.64;103696;280;38735;-76
2023/08/10 09:33:39;;;;;;;4.70;1.30;;;;;;;34.42;24.10;100996.44;103702;280;38497;-76
2023/08/10 09:36:13;;;;;;;1.70;1.20;;;;;;;33.93;25.04;100996.45;103577;281;38816;-76
2023/08/10 09:38:54;;;;;;;3.50;1.30;;;;;;;33.15;25.87;100998.30;103664;280;38800;-75
2023/08/10 09:41:28;;;;;;;3.00;1.50;;;;;;;32.18;26.33;100997.70;103736;280;38596;-77
2023/08/10 09:44:04;;;;;;;3.30;1.20;;;;;;;31.27;27.34;101002.59;103645;280;38358;-77
2023/08/10 09:46:38;;;;;;;2.70;1.20;;;;;;;30.84;28.38;101005.02;103737;280;38483;-76
2023/08/10 09:49:13;;;;;;;3.50;1.40;;;;;;;30.59;28.10;101002.85;103701;280;39664;-76
2023/08/10 09:51:48;;;;;;;13.30;4.20;;;;;;;30.11;28.12;100999.95;103737;280;39375;-75
2023/08/10 09:54:22;;;;;;;9.60;3.30;;;;;;;29.39;28.59;101001.27;103723;280;38851;-75
2023/08/10 09:56:59;;;;;;;1.80;1.20;;;;;;;28.99;30.14;101004.32;103095;280;888571;-75
2023/08/10 09:59:35;;;;;;;3.90;1.10;;;;;;;28.91;31.05;101007.07;103683;280;38404;-75
2023/08/10 10:02:11;;;;;;;3.80;1.10;;;;;;;28.75;31.69;101006.80;103736;280;38237;-75
2023/08/10 10:04:47;;;;;;;2.30;1.10;;;;;;;28.29;31.70;101011.55;103701;269;39441;-75
2023/08/10 10:07:32;;;;;;;4.30;1.60;;;;;;;27.79;32.70;101015.05;103619;280;174487;-75
2023/08/10 10:10:08;;;;;;;3.60;1.30;;;;;;;27.58;32.78;101015.72;103669;280;38295;-75
2023/08/10 10:12:46;;;;;;;4.50;1.70;;;;;;;27.31;32.51;101018.89;103702;280;38252;-75
2023/08/10 10:15:23;;;;;;;1.80;1.40;;;;;;;26.88;32.12;101012.14;103675;280;38175;-74
2023/08/10 10:17:58;;;;;;;4.50;1.50;;;;;;;26.42;32.14;101009.41;103742;280;38500;-75
2023/08/10 10:20:32;;;;;;;5.30;1.40;;;;;;;26.31;33.62;101007.81;103701;280;38875;-75
2023/08/10 10:23:07;;;;;;;3.50;1.40;;;;;;;26.38;33.96;101010.67;103698;280;39817;-74
2023/08/10 10:25:42;;;;;;;2.80;1.40;;;;;;;26.34;33.72;101010.55;103737;280;38237;-74
2023/08/10 10:28:19;;;;;;;3.70;1.90;;;;;;;26.39;34.69;101011.66;103740;279;38838;-75
2023/08/10 10:31:09;;;;;;;2.00;1.30;;;;;;;26.57;35.02;101014.81;103719;280;38368;-74
2023/08/10 10:33:58;;;;;;;2.80;1.30;;;;;;;26.63;33.38;101012.61;103717;280;38763;-75
2023/08/10 10:36:33;;;;;;;5.00;1.40;;;;;;;26.76;33.39;101014.90;103764;279;39708;-75
2023/08/10 10:39:14;;;;;;;2.60;1.20;;;;;;;26.69;33.15;101012.70;103800;279;38229;-75
2023/08/10 10:41:51;;;;;;;2.50;1.10;;;;;;;26.41;33.83;101012.20;103844;278;38434;-75
2023/08/10 10:44:25;;;;;;;4.00;1.50;;;;;;;26.12;32.75;101011.86;103722;279;38990;-75
2023/08/10 10:46:59;;;;;;;3.50;1.40;;;;;;;26.06;32.63;101013.85;103851;279;38470;-75
2023/08/10 10:49:34;;;;;;;2.70;1.20;;;;;;;26.09;33.00;101008.21;103781;279;38249;-75
2023/08/10 10:52:09;;;;;;;7.10;1.50;;;;;;;26.06;34.04;101011.01;103817;279;38685;-75
2023/08/10 10:54:43;;;;;;;4.00;1.40;;;;;;;25.90;35.21;101009.42;103852;278;38396;-75
2023/08/10 10:57:17;;;;;;;5.50;2.70;;;;;;;25.88;35.04;101003.39;103801;279;38652;-74
2023/08/10 10:59:57;;;;;;;3.50;1.60;;;;;;;25.99;34.55;101004.63;103689;280;38761;-75
2023/08/10 11:02:33;;;;;;;7.50;2.00;;;;;;;26.17;34.70;101006.20;103239;279;906009;-74
2023/08/10 11:05:15;;;;;;;3.70;1.40;;;;;;;26.27;33.37;101006.16;103817;279;38215;-74
2023/08/10 11:07:50;;;;;;;2.40;1.60;;;;;;;26.27;33.30;101007.13;103845;279;38773;-74
2023/08/10 11:10:24;;;;;;;4.10;1.30;;;;;;;26.18;33.51;100998.61;103708;279;38231;-75
2023/08/10 11:13:03;;;;;;;4.90;1.20;;;;;;;26.12;33.97;100999.48;103865;279;38637;-75
2023/08/10 11:15:37;;;;;;;2.50;1.20;;;;;;;26.07;32.95;100991.08;103719;279;38277;-75
2023/08/10 11:18:17;;;;;;;3.00;1.20;;;;;;;25.98;33.29;100993.89;103860;278;39256;-75
2023/08/10 11:20:56;;;;;;;5.30;1.70;;;;;;;25.92;33.41;100993.87;103826;279;39398;-75
2023/08/10 11:23:31;;;;;;;8.60;1.30;;;;;;;25.71;34.32;100992.21;103732;279;174297;-74
2023/08/10 11:26:05;;;;;;;3.20;1.30;;;;;;;25.64;34.45;100992.54;103829;279;38520;-74
2023/08/10 11:28:41;;;;;;;3.00;1.40;;;;;;;25.59;34.39;100989.36;103811;279;39730;-74
2023/08/10 11:31:16;;;;;;;4.80;1.30;;;;;;;25.58;34.69;100989.86;103815;279;39532;-74
2023/08/10 11:33:54;;;;;;;1.70;1.10;;;;;;;25.63;34.64;100992.46;103801;279;38228;-74
2023/08/10 11:36:29;;;;;;;3.20;1.30;;;;;;;25.72;34.25;100989.39;103879;279;38629;-74
2023/08/10 11:39:10;;;;;;;2.50;1.30;;;;;;;25.74;32.80;100988.73;103845;279;39488;-76
2023/08/10 11:41:46;;;;;;;1.90;1.00;;;;;;;25.64;33.90;100985.17;103868;279;40071;-75
2023/08/10 11:44:32;;;;;;;2.40;1.10;;;;;;;25.49;33.87;100987.23;103387;279;620096;-75
2023/08/10 11:47:09;;;;;;;2.40;1.00;;;;;;;25.25;34.10;100991.59;103885;279;38845;-75
2023/08/10 11:49:46;;;;;;;2.10;1.30;;;;;;;24.99;34.88;100986.07;103815;279;38519;-74
2023/08/10 11:52:20;;;;;;;2.50;1.50;;;;;;;24.89;35.21;100989.39;103849;279;39697;-74
2023/08/10 11:54:55;;;;;;;2.80;1.10;;;;;;;25.00;34.66;100983.46;103691;280;38364;-74
2023/08/10 11:57:38;;;;;;;2.20;1.10;;;;;;;25.10;34.29;100983.27;103723;279;38273;-74
2023/08/10 12:00:33;;;;;;;2.60;1.30;;;;;;;25.24;33.86;100980.77;103848;278;39405;-74
2023/08/10 12:03:11;;;;;;;3.50;1.60;;;;;;;25.15;33.64;100979.82;103836;279;39397;-74
2023/08/10 12:05:49;;;;;;;;;;;;;;;24.94;34.33;100980.23;103823;279;39547;-75